SAS72G EKCH-EGLL
Flight info
| Callsign | SAS72G |
|---|---|
| Flight time | N/A |
| Altitude | 38000 |
| Route | LANGO2A LANGO DCT ABNED L980 LOGAN LOGAN2H |
| Aircraft | A20N/M-SDE2E3FGHIRWXY/LB1 |
Departure
| Time | 2026-04-24 14:27 |
|---|---|
| Airport | Copenhagen Kastrup Airport (EKCH) |
Arrival
| Time | N/A |
|---|---|
| Airport | London Heathrow Airport (EGLL) |
| Time | Latitude | Longitude | Altitude | Speed | Heading |
|---|---|---|---|---|---|
| 2026-04-24 13:58 | 55.62641 | 12.65057 | 21 ft | 0 kts | 278° |
| 2026-04-24 14:15 | 55.62640 | 12.65066 | 20 ft | 4 kts | 278° |
| 2026-04-24 14:15 | 55.62636 | 12.65113 | 21 ft | 4 kts | 278° |
| 2026-04-24 14:15 | 55.62633 | 12.65152 | 24 ft | 2 kts | 278° |
| 2026-04-24 14:15 | 55.62633 | 12.65196 | 24 ft | 4 kts | 250° |
| 2026-04-24 14:16 | 55.62645 | 12.65239 | 21 ft | 4 kts | 244° |
| 2026-04-24 14:16 | 55.62641 | 12.65226 | 22 ft | 4 kts | 243° |
| 2026-04-24 14:16 | 55.62623 | 12.65196 | 22 ft | 4 kts | 203° |
| 2026-04-24 14:17 | 55.62574 | 12.65196 | 20 ft | 4 kts | 179° |
| 2026-04-24 14:17 | 55.62547 | 12.65197 | 20 ft | 4 kts | 179° |
| 2026-04-24 14:17 | 55.62508 | 12.65198 | 20 ft | 1 kts | 179° |
| 2026-04-24 14:20 | 55.62497 | 12.65199 | 20 ft | 5 kts | 179° |
| 2026-04-24 14:20 | 55.62437 | 12.65201 | 20 ft | 13 kts | 179° |
| 2026-04-24 14:21 | 55.62322 | 12.65203 | 20 ft | 20 kts | 180° |
| 2026-04-24 14:21 | 55.62192 | 12.65159 | 22 ft | 18 kts | 210° |
| 2026-04-24 14:21 | 55.62088 | 12.65042 | 22 ft | 17 kts | 213° |
| 2026-04-24 14:21 | 55.61992 | 12.64931 | 21 ft | 16 kts | 213° |
| 2026-04-24 14:22 | 55.61898 | 12.64824 | 20 ft | 16 kts | 213° |
| 2026-04-24 14:22 | 55.61809 | 12.64722 | 22 ft | 15 kts | 213° |
| 2026-04-24 14:22 | 55.61651 | 12.64541 | 20 ft | 13 kts | 213° |
| 2026-04-24 14:23 | 55.61579 | 12.64459 | 20 ft | 12 kts | 213° |
| 2026-04-24 14:23 | 55.61512 | 12.64383 | 20 ft | 11 kts | 212° |
| 2026-04-24 14:23 | 55.61449 | 12.64312 | 23 ft | 11 kts | 212° |
| 2026-04-24 14:23 | 55.61387 | 12.64240 | 20 ft | 12 kts | 213° |
| 2026-04-24 14:24 | 55.61313 | 12.64150 | 21 ft | 14 kts | 213° |
| 2026-04-24 14:24 | 55.61257 | 12.64086 | 21 ft | 14 kts | 213° |
| 2026-04-24 14:24 | 55.61176 | 12.63992 | 22 ft | 13 kts | 213° |
| 2026-04-24 14:24 | 55.61090 | 12.63893 | 20 ft | 17 kts | 213° |
| 2026-04-24 14:25 | 55.60984 | 12.63773 | 22 ft | 18 kts | 213° |
| 2026-04-24 14:25 | 55.60884 | 12.63658 | 21 ft | 17 kts | 214° |
| 2026-04-24 14:25 | 55.60787 | 12.63596 | 22 ft | 13 kts | 155° |
| 2026-04-24 14:25 | 55.60713 | 12.63733 | 20 ft | 11 kts | 131° |
| 2026-04-24 14:26 | 55.60689 | 12.63801 | 21 ft | 8 kts | 111° |
| 2026-04-24 14:26 | 55.60691 | 12.63882 | 23 ft | 6 kts | 69° |
| 2026-04-24 14:26 | 55.60720 | 12.63939 | 22 ft | 8 kts | 41° |
| 2026-04-24 14:26 | 55.60854 | 12.64146 | 22 ft | 52 kts | 41° |
| 2026-04-24 14:27 | 55.61278 | 12.64801 | 22 ft | 109 kts | 41° |
| 2026-04-24 14:27 | 55.61967 | 12.65873 | 84 ft | 145 kts | 35° |
| 2026-04-24 14:27 | 55.62700 | 12.66969 | 682 ft | 133 kts | 34° |
| 2026-04-24 14:27 | 55.63448 | 12.68115 | 1034 ft | 150 kts | 34° |
| 2026-04-24 14:28 | 55.64293 | 12.69422 | 1309 ft | 173 kts | 35° |
| 2026-04-24 14:28 | 55.65285 | 12.70924 | 1640 ft | 199 kts | 35° |
| 2026-04-24 14:28 | 55.66427 | 12.72638 | 1921 ft | 232 kts | 35° |
| 2026-04-24 14:28 | 55.67704 | 12.74551 | 2610 ft | 244 kts | 36° |
| 2026-04-24 14:29 | 55.68999 | 12.76518 | 3579 ft | 247 kts | 37° |
| 2026-04-24 14:29 | 55.70115 | 12.78897 | 4511 ft | 257 kts | 56° |
| 2026-04-24 14:29 | 55.70587 | 12.81979 | 5386 ft | 273 kts | 85° |
| 2026-04-24 14:29 | 55.70109 | 12.85294 | 6174 ft | 288 kts | 118° |
| 2026-04-24 14:30 | 55.68663 | 12.87806 | 6911 ft | 297 kts | 152° |
| 2026-04-24 14:30 | 55.66754 | 12.89264 | 7682 ft | 301 kts | 162° |
| 2026-04-24 14:30 | 55.64762 | 12.90480 | 8492 ft | 305 kts | 163° |
| 2026-04-24 14:30 | 55.62720 | 12.91577 | 9312 ft | 306 kts | 172° |
| 2026-04-24 14:31 | 55.60616 | 12.91637 | 10049 ft | 303 kts | 197° |
| 2026-04-24 14:31 | 55.58698 | 12.90135 | 10477 ft | 307 kts | 223° |
| 2026-04-24 14:31 | 55.57084 | 12.87515 | 10762 ft | 324 kts | 231° |
| 2026-04-24 14:31 | 55.55492 | 12.84538 | 11099 ft | 342 kts | 232° |
| 2026-04-24 14:32 | 55.53845 | 12.81432 | 11681 ft | 350 kts | 233° |
| 2026-04-24 14:32 | 55.52390 | 12.78006 | 12428 ft | 348 kts | 245° |
| 2026-04-24 14:32 | 55.51534 | 12.74058 | 13166 ft | 343 kts | 262° |
| 2026-04-24 14:32 | 55.51237 | 12.69891 | 13914 ft | 344 kts | 269° |
| 2026-04-24 14:33 | 55.51085 | 12.65671 | 14594 ft | 346 kts | 270° |
| 2026-04-24 14:33 | 55.50948 | 12.61417 | 15296 ft | 349 kts | 270° |
| 2026-04-24 14:33 | 55.50803 | 12.57130 | 15999 ft | 351 kts | 270° |
| 2026-04-24 14:33 | 55.50649 | 12.52816 | 16702 ft | 354 kts | 270° |
| 2026-04-24 14:34 | 55.50488 | 12.48470 | 17397 ft | 357 kts | 269° |
| 2026-04-24 14:34 | 55.50322 | 12.44087 | 18078 ft | 359 kts | 269° |
| 2026-04-24 14:34 | 55.50154 | 12.39730 | 18688 ft | 362 kts | 269° |
| 2026-04-24 14:34 | 55.49980 | 12.35285 | 19263 ft | 365 kts | 269° |
| 2026-04-24 14:35 | 55.49785 | 12.30804 | 19823 ft | 368 kts | 268° |
| 2026-04-24 14:35 | 55.49325 | 12.26324 | 20416 ft | 375 kts | 259° |
| 2026-04-24 14:35 | 55.48385 | 12.21983 | 20962 ft | 384 kts | 248° |
| 2026-04-24 14:35 | 55.46953 | 12.17927 | 21506 ft | 393 kts | 240° |
| 2026-04-24 14:36 | 55.45316 | 12.14035 | 22045 ft | 397 kts | 238° |
| 2026-04-24 14:36 | 55.43632 | 12.10144 | 22585 ft | 401 kts | 238° |
| 2026-04-24 14:36 | 55.41932 | 12.06221 | 23099 ft | 404 kts | 238° |
| 2026-04-24 14:36 | 55.40227 | 12.02273 | 23622 ft | 407 kts | 239° |
| 2026-04-24 14:37 | 55.38512 | 11.98299 | 24056 ft | 409 kts | 239° |
| 2026-04-24 14:37 | 55.36805 | 11.94341 | 24485 ft | 411 kts | 239° |
| 2026-04-24 14:37 | 55.35070 | 11.90321 | 24922 ft | 413 kts | 238° |
| 2026-04-24 14:37 | 55.33328 | 11.86288 | 25347 ft | 415 kts | 238° |
| 2026-04-24 14:38 | 55.31601 | 11.82295 | 25752 ft | 417 kts | 238° |
| 2026-04-24 14:38 | 55.29843 | 11.78236 | 26158 ft | 419 kts | 238° |
| 2026-04-24 14:38 | 55.28074 | 11.74158 | 26565 ft | 421 kts | 238° |
| 2026-04-24 14:38 | 55.26298 | 11.70071 | 26971 ft | 422 kts | 238° |
| 2026-04-24 14:39 | 55.24587 | 11.65886 | 27356 ft | 422 kts | 242° |
| 2026-04-24 14:39 | 55.22977 | 11.61576 | 27695 ft | 423 kts | 242° |
| 2026-04-24 14:39 | 55.21383 | 11.57238 | 28133 ft | 423 kts | 242° |
| 2026-04-24 14:39 | 55.19785 | 11.52893 | 28519 ft | 425 kts | 242° |
| 2026-04-24 14:40 | 55.18176 | 11.48532 | 28872 ft | 427 kts | 242° |
| 2026-04-24 14:40 | 55.16558 | 11.44164 | 29282 ft | 427 kts | 242° |
| 2026-04-24 14:40 | 55.14944 | 11.39820 | 29807 ft | 425 kts | 242° |
| 2026-04-24 14:40 | 55.13338 | 11.35509 | 30303 ft | 422 kts | 242° |
| 2026-04-24 14:41 | 55.11829 | 11.31463 | 30673 ft | 421 kts | 242° |
| 2026-04-24 14:41 | 55.10252 | 11.27242 | 31020 ft | 420 kts | 242° |
| 2026-04-24 14:41 | 55.08630 | 11.22908 | 31380 ft | 419 kts | 242° |
| 2026-04-24 14:41 | 55.07037 | 11.18660 | 31732 ft | 418 kts | 242° |
| 2026-04-24 14:42 | 55.05467 | 11.14478 | 32080 ft | 417 kts | 242° |
| 2026-04-24 14:42 | 55.03875 | 11.10248 | 32421 ft | 416 kts | 242° |
| 2026-04-24 14:42 | 55.02287 | 11.06032 | 32746 ft | 416 kts | 242° |
| 2026-04-24 14:42 | 55.00697 | 11.01821 | 33049 ft | 415 kts | 242° |
| 2026-04-24 14:43 | 54.99112 | 10.97629 | 33370 ft | 414 kts | 242° |
| 2026-04-24 14:43 | 54.97526 | 10.93443 | 33655 ft | 413 kts | 241° |
| 2026-04-24 14:43 | 54.95945 | 10.89274 | 33934 ft | 413 kts | 241° |
| 2026-04-24 14:43 | 54.94373 | 10.85093 | 34194 ft | 412 kts | 242° |
| 2026-04-24 14:44 | 54.92860 | 10.80864 | 34441 ft | 411 kts | 243° |
| 2026-04-24 14:44 | 54.91388 | 10.76616 | 34675 ft | 410 kts | 243° |
| 2026-04-24 14:44 | 54.89931 | 10.72358 | 34905 ft | 409 kts | 243° |
| 2026-04-24 14:44 | 54.88479 | 10.68107 | 35128 ft | 409 kts | 243° |
| 2026-04-24 14:45 | 54.87025 | 10.63867 | 35344 ft | 408 kts | 243° |
| 2026-04-24 14:45 | 54.85566 | 10.59635 | 35549 ft | 408 kts | 243° |
| 2026-04-24 14:45 | 54.84102 | 10.55412 | 35756 ft | 408 kts | 243° |
| 2026-04-24 14:45 | 54.82635 | 10.51197 | 35950 ft | 407 kts | 243° |
| 2026-04-24 14:46 | 54.81170 | 10.47000 | 36116 ft | 407 kts | 243° |
| 2026-04-24 14:46 | 54.79720 | 10.42853 | 36311 ft | 407 kts | 243° |
| 2026-04-24 14:46 | 54.78254 | 10.38673 | 36504 ft | 406 kts | 243° |
| 2026-04-24 14:46 | 54.76784 | 10.34487 | 36676 ft | 406 kts | 243° |
| 2026-04-24 14:47 | 54.75317 | 10.30317 | 36847 ft | 406 kts | 242° |
| 2026-04-24 14:47 | 54.73849 | 10.26148 | 37010 ft | 405 kts | 242° |
| 2026-04-24 14:47 | 54.72380 | 10.21985 | 37189 ft | 405 kts | 242° |
| 2026-04-24 14:47 | 54.70891 | 10.17771 | 37359 ft | 405 kts | 242° |
| 2026-04-24 14:48 | 54.69445 | 10.13686 | 37513 ft | 404 kts | 242° |
| 2026-04-24 14:48 | 54.67975 | 10.09540 | 37664 ft | 404 kts | 242° |
| 2026-04-24 14:48 | 54.66506 | 10.05407 | 37812 ft | 404 kts | 242° |
| 2026-04-24 14:48 | 54.65037 | 10.01275 | 37956 ft | 403 kts | 242° |
| 2026-04-24 14:49 | 54.63567 | 9.97150 | 38088 ft | 404 kts | 242° |
| 2026-04-24 14:49 | 54.60614 | 9.88881 | 38121 ft | 405 kts | 242° |
| 2026-04-24 14:50 | 54.57661 | 9.80646 | 38125 ft | 403 kts | 242° |
| 2026-04-24 14:50 | 54.54708 | 9.72437 | 38127 ft | 403 kts | 242° |
| 2026-04-24 14:51 | 54.51749 | 9.64234 | 38132 ft | 403 kts | 241° |
| 2026-04-24 14:51 | 54.48779 | 9.56032 | 38128 ft | 404 kts | 241° |
| 2026-04-24 14:52 | 54.45800 | 9.47832 | 38129 ft | 404 kts | 241° |
| 2026-04-24 14:52 | 54.42820 | 9.39657 | 38130 ft | 404 kts | 241° |
| 2026-04-24 14:53 | 54.39828 | 9.31475 | 38153 ft | 404 kts | 241° |
| 2026-04-24 14:53 | 54.36854 | 9.23370 | 38159 ft | 405 kts | 241° |
| 2026-04-24 14:54 | 54.33845 | 9.15195 | 38167 ft | 405 kts | 240° |
| 2026-04-24 14:54 | 54.30833 | 9.07039 | 38185 ft | 405 kts | 240° |
| 2026-04-24 14:55 | 54.28317 | 9.00244 | 38178 ft | 407 kts | 240° |
| 2026-04-24 14:55 | 54.24762 | 8.90681 | 38182 ft | 408 kts | 240° |
| 2026-04-24 14:56 | 54.21716 | 8.82516 | 38178 ft | 408 kts | 240° |
| 2026-04-24 14:56 | 54.21248 | 8.81262 | 38180 ft | 408 kts | 240° |
| 2026-04-24 14:57 | 54.18133 | 8.72944 | 38175 ft | 408 kts | 240° |
| 2026-04-24 14:57 | 54.15096 | 8.64860 | 38183 ft | 407 kts | 240° |
| 2026-04-24 14:58 | 54.12034 | 8.56734 | 38193 ft | 407 kts | 240° |
| 2026-04-24 14:58 | 54.08963 | 8.48612 | 38194 ft | 407 kts | 240° |
| 2026-04-24 14:59 | 54.05885 | 8.40498 | 38197 ft | 408 kts | 239° |
| 2026-04-24 14:59 | 54.02796 | 8.32380 | 38198 ft | 409 kts | 239° |
| 2026-04-24 15:00 | 53.99709 | 8.24295 | 38199 ft | 409 kts | 239° |
| 2026-04-24 15:00 | 53.96605 | 8.16194 | 38210 ft | 409 kts | 239° |
| 2026-04-24 15:01 | 53.93506 | 8.08130 | 38208 ft | 407 kts | 239° |
| 2026-04-24 15:01 | 53.90432 | 8.00158 | 38211 ft | 406 kts | 239° |
| 2026-04-24 15:02 | 53.87355 | 7.92200 | 38219 ft | 406 kts | 239° |
| 2026-04-24 15:02 | 53.84250 | 7.84196 | 38217 ft | 406 kts | 239° |
| 2026-04-24 15:03 | 53.81662 | 7.77545 | 38230 ft | 406 kts | 239° |
| 2026-04-24 15:03 | 53.78041 | 7.68270 | 38229 ft | 406 kts | 239° |
| 2026-04-24 15:04 | 53.74921 | 7.60306 | 38236 ft | 406 kts | 239° |
| 2026-04-24 15:04 | 53.71807 | 7.52382 | 38236 ft | 403 kts | 239° |
| 2026-04-24 15:05 | 53.68702 | 7.44507 | 38227 ft | 402 kts | 239° |
| 2026-04-24 15:05 | 53.65599 | 7.36658 | 38226 ft | 402 kts | 239° |
| 2026-04-24 15:06 | 53.62489 | 7.28818 | 38231 ft | 402 kts | 239° |
| 2026-04-24 15:06 | 53.59371 | 7.20981 | 38237 ft | 402 kts | 238° |
| 2026-04-24 15:07 | 53.56275 | 7.13225 | 38236 ft | 402 kts | 238° |
| 2026-04-24 15:07 | 53.53152 | 7.05426 | 38244 ft | 402 kts | 238° |
| 2026-04-24 15:08 | 53.50036 | 6.97669 | 38254 ft | 399 kts | 238° |
| 2026-04-24 15:08 | 53.46926 | 6.89950 | 38252 ft | 399 kts | 238° |
| 2026-04-24 15:09 | 53.43815 | 6.82251 | 38251 ft | 399 kts | 238° |
| 2026-04-24 15:09 | 53.40696 | 6.74556 | 38258 ft | 399 kts | 238° |
| 2026-04-24 15:10 | 53.37570 | 6.66865 | 38262 ft | 399 kts | 238° |
| 2026-04-24 15:10 | 53.34966 | 6.60478 | 38261 ft | 400 kts | 238° |
| 2026-04-24 15:11 | 53.31824 | 6.52794 | 38264 ft | 400 kts | 238° |
| 2026-04-24 15:11 | 53.28222 | 6.44012 | 38262 ft | 400 kts | 238° |
| 2026-04-24 15:12 | 53.25579 | 6.37590 | 38263 ft | 400 kts | 238° |
| 2026-04-24 15:12 | 53.20926 | 6.26320 | 38276 ft | 400 kts | 238° |
| 2026-04-24 15:13 | 53.17762 | 6.18685 | 38277 ft | 400 kts | 238° |
| 2026-04-24 15:13 | 53.14589 | 6.11051 | 38288 ft | 400 kts | 238° |
| 2026-04-24 15:14 | 53.11409 | 6.03423 | 38286 ft | 402 kts | 238° |
| 2026-04-24 15:14 | 53.08217 | 5.95789 | 38284 ft | 401 kts | 238° |
| 2026-04-24 15:15 | 53.05028 | 5.88190 | 38287 ft | 400 kts | 238° |
| 2026-04-24 15:15 | 53.01864 | 5.80668 | 38286 ft | 400 kts | 238° |
| 2026-04-24 15:16 | 52.98775 | 5.73347 | 38286 ft | 400 kts | 237° |
| 2026-04-24 15:16 | 52.95525 | 5.65667 | 38287 ft | 400 kts | 237° |
| 2026-04-24 15:17 | 52.92318 | 5.58110 | 38284 ft | 400 kts | 237° |
| 2026-04-24 15:17 | 52.89109 | 5.50571 | 38285 ft | 401 kts | 237° |
| 2026-04-24 15:18 | 52.85891 | 5.43035 | 38286 ft | 401 kts | 237° |
| 2026-04-24 15:18 | 52.82664 | 5.35501 | 38285 ft | 400 kts | 237° |
| 2026-04-24 15:19 | 52.79470 | 5.28065 | 38286 ft | 400 kts | 237° |
| 2026-04-24 15:19 | 52.76298 | 5.20700 | 38287 ft | 401 kts | 237° |
| 2026-04-24 15:20 | 52.73060 | 5.13205 | 38284 ft | 401 kts | 237° |
| 2026-04-24 15:20 | 52.69819 | 5.05724 | 38284 ft | 401 kts | 237° |
| 2026-04-24 15:21 | 52.66573 | 4.98256 | 38292 ft | 401 kts | 237° |
| 2026-04-24 15:21 | 52.63322 | 4.90796 | 38290 ft | 401 kts | 237° |
| 2026-04-24 15:22 | 52.60065 | 4.83344 | 38288 ft | 401 kts | 237° |
| 2026-04-24 15:23 | 52.55188 | 4.72229 | 38289 ft | 401 kts | 237° |
| 2026-04-24 15:23 | 52.50279 | 4.61088 | 38287 ft | 401 kts | 237° |
| 2026-04-24 15:25 | 52.42630 | 4.43824 | 38285 ft | 402 kts | 236° |
| 2026-04-24 15:26 | 52.33819 | 4.24080 | 38289 ft | 402 kts | 236° |
| 2026-04-24 15:27 | 52.23919 | 4.02080 | 38297 ft | 403 kts | 236° |
| 2026-04-24 15:29 | 52.13945 | 3.80103 | 38298 ft | 404 kts | 235° |
| 2026-04-24 15:31 | 52.02232 | 3.54534 | 38303 ft | 404 kts | 235° |
| 2026-04-24 15:33 | 51.88739 | 3.25392 | 38314 ft | 406 kts | 234° |
| 2026-04-24 15:33 | 51.84897 | 3.13364 | 38311 ft | 402 kts | 256° |
| 2026-04-24 15:34 | 51.84011 | 3.04429 | 38305 ft | 403 kts | 263° |
| 2026-04-24 15:35 | 51.82604 | 2.81847 | 38303 ft | 404 kts | 263° |
| 2026-04-24 15:36 | 51.82012 | 2.72875 | 38117 ft | 404 kts | 263° |